Time;durP1;ratioP1;P1;durP2;ratioP2;P2;SDS_P1;SDS_P2;PMS_P1;PMS_P2;Temp;Humidity;BMP_temperature;BMP_pressure;BME280_temperature;BME280_humidity;BME280_pressure;Samples;Min_cycle;Max_cycle;Signal;HPM_P1;HPM_P2
2023/12/09 00:01:54;;;;;;;3.40;2.17;;;17.90;48.20;;;;;;5169263;27;45251;-64
2023/12/09 00:04:21;;;;;;;2.40;1.80;;;17.90;48.20;;;;;;5169288;27;45322;-64
2023/12/09 00:06:49;;;;;;;2.33;1.90;;;17.90;48.30;;;;;;5169503;27;45391;-63
2023/12/09 00:09:18;;;;;;;3.35;1.60;;;17.80;48.30;;;;;;5169012;27;47327;-64
2023/12/09 00:11:44;;;;;;;2.10;1.90;;;17.80;48.30;;;;;;5169247;27;45519;-64
2023/12/09 00:14:11;;;;;;;2.22;1.65;;;17.80;48.40;;;;;;5169135;27;45445;-63
2023/12/09 00:16:38;;;;;;;2.45;1.77;;;17.70;48.30;;;;;;5169267;27;45331;-64
2023/12/09 00:19:06;;;;;;;2.08;1.98;;;17.70;48.40;;;;;;5168719;27;47331;-63
2023/12/09 00:21:33;;;;;;;3.58;1.63;;;17.70;48.40;;;;;;5169014;27;45218;-64
2023/12/09 00:24:01;;;;;;;2.67;1.83;;;17.70;48.40;;;;;;5169260;27;45477;-63
2023/12/09 00:26:28;;;;;;;3.13;1.70;;;17.60;48.50;;;;;;5169269;27;45279;-64
2023/12/09 00:28:55;;;;;;;2.53;1.63;;;17.60;48.40;;;;;;5168618;27;45364;-64
2023/12/09 00:31:22;;;;;;;2.30;1.38;;;17.60;48.50;;;;;;5166244;27;45174;-64
2023/12/09 00:33:49;;;;;;;3.15;1.50;;;17.60;48.60;;;;;;5168838;27;45339;-64
2023/12/09 00:36:16;;;;;;;1.77;1.60;;;17.50;48.50;;;;;;5168826;27;45429;-64
2023/12/09 00:38:42;;;;;;;1.73;1.27;;;17.50;48.60;;;;;;5168499;27;47627;-64
2023/12/09 00:41:11;;;;;;;2.42;1.63;;;17.50;48.60;;;;;;5168785;27;45323;-64
2023/12/09 00:43:37;;;;;;;1.58;1.48;;;17.50;48.70;;;;;;5168823;27;45124;-64
2023/12/09 00:46:05;;;;;;;2.38;1.55;;;17.40;48.70;;;;;;5169114;27;45373;-63
2023/12/09 00:48:32;;;;;;;2.13;1.73;;;17.40;48.70;;;;;;5168467;27;45431;-63
2023/12/09 00:50:59;;;;;;;2.10;1.45;;;17.40;48.70;;;;;;5168560;27;45460;-63
2023/12/09 00:53:26;;;;;;;1.88;1.58;;;17.40;48.70;;;;;;5168893;27;45190;-63
2023/12/09 00:55:53;;;;;;;2.10;1.70;;;17.40;48.70;;;;;;5168897;27;45220;-63
2023/12/09 00:58:21;;;;;;;1.95;1.50;;;17.40;48.80;;;;;;5168213;27;46325;-63
2023/12/09 01:00:47;;;;;;;3.45;1.92;;;17.30;48.70;;;;;;5170965;27;45399;-63
2023/12/09 01:03:14;;;;;;;1.70;1.60;;;17.30;48.70;;;;;;5172648;27;45374;-63
2023/12/09 01:05:41;;;;;;;2.58;1.70;;;17.30;48.70;;;;;;5172574;27;45400;-63
2023/12/09 01:08:08;;;;;;;2.30;1.88;;;17.30;48.70;;;;;;5172060;27;45308;-64
2023/12/09 01:10:35;;;;;;;1.60;1.50;;;17.30;48.80;;;;;;5172081;27;45327;-64
2023/12/09 01:13:02;;;;;;;2.53;1.60;;;17.20;48.80;;;;;;5172327;27;45521;-63
2023/12/09 01:15:30;;;;;;;2.03;1.38;;;17.20;48.80;;;;;;5172225;27;45477;-64
2023/12/09 01:17:57;;;;;;;2.42;1.50;;;17.20;48.90;;;;;;5171816;27;46394;-64
2023/12/09 01:20:24;;;;;;;2.90;1.52;;;17.20;48.90;;;;;;5171901;27;45320;-63
2023/12/09 01:22:51;;;;;;;1.50;1.40;;;17.20;48.90;;;;;;5172077;27;45458;-64
2023/12/09 01:25:18;;;;;;;3.80;1.58;;;17.20;48.90;;;;;;5172244;27;45390;-64
2023/12/09 01:27:44;;;;;;;2.53;1.45;;;17.10;48.80;;;;;;5171666;27;45705;-64
2023/12/09 01:30:12;;;;;;;2.63;1.58;;;17.20;48.90;;;;;;5171868;27;45253;-63
2023/12/09 01:32:40;;;;;;;1.92;1.30;;;17.10;48.80;;;;;;5171843;27;45326;-63
2023/12/09 01:35:08;;;;;;;2.90;1.48;;;17.10;48.80;;;;;;5171993;27;45348;-64
2023/12/09 01:37:35;;;;;;;2.65;1.35;;;17.10;48.90;;;;;;5171457;27;47452;-63
2023/12/09 01:40:01;;;;;;;3.67;1.75;;;17.10;48.90;;;;;;5171633;27;45256;-63
2023/12/09 01:42:28;;;;;;;1.60;1.30;;;17.00;48.90;;;;;;5171591;27;45331;-63
2023/12/09 01:44:55;;;;;;;2.60;1.45;;;17.00;49.00;;;;;;5171875;27;45377;-64
2023/12/09 01:47:22;;;;;;;1.80;1.52;;;17.00;49.00;;;;;;5171454;27;47301;-64
2023/12/09 01:49:50;;;;;;;2.35;1.38;;;16.90;49.00;;;;;;5171711;27;45462;-64
2023/12/09 01:52:17;;;;;;;1.73;1.30;;;16.90;49.00;;;;;;5171673;27;45260;-63
2023/12/09 01:54:44;;;;;;;2.53;1.20;;;16.90;49.00;;;;;;5171597;27;45441;-64
2023/12/09 01:57:11;;;;;;;2.13;1.55;;;16.90;49.00;;;;;;5171200;27;45760;-64
2023/12/09 01:59:37;;;;;;;1.42;1.30;;;16.90;49.00;;;;;;5171137;27;45370;-63
2023/12/09 02:02:04;;;;;;;1.58;1.10;;;16.90;49.10;;;;;;5171546;27;45395;-64
2023/12/09 02:04:31;;;;;;;1.30;1.20;;;16.90;49.10;;;;;;5171648;27;45173;-63
2023/12/09 02:06:59;;;;;;;2.22;1.40;;;16.80;49.10;;;;;;5171338;27;46418;-64
2023/12/09 02:09:26;;;;;;;1.48;1.30;;;16.80;49.10;;;;;;5171172;27;45422;-64
2023/12/09 02:11:56;;;;;;;1.75;1.35;;;16.80;49.10;;;;;;5170415;27;45459;-63
2023/12/09 02:14:25;;;;;;;1.77;1.23;;;16.80;49.10;;;;;;5171525;27;45307;-64
2023/12/09 02:16:53;;;;;;;2.05;1.15;;;16.80;49.10;;;;;;5171021;27;46307;-64
2023/12/09 02:19:20;;;;;;;1.25;1.15;;;16.80;49.10;;;;;;5170898;27;45326;-64
2023/12/09 02:22:05;;;;;;;1.40;1.30;;;16.80;49.10;;;;;;5171120;27;45417;-64
2023/12/09 02:24:33;;;;;;;1.95;1.50;;;16.70;49.10;;;;;;5171670;27;45229;-64
2023/12/09 02:27:03;;;;;;;2.78;1.30;;;16.70;49.10;;;;;;5170897;27;45241;-63
2023/12/09 02:29:32;;;;;;;2.67;1.15;;;16.70;49.20;;;;;;5170708;27;45382;-64
2023/12/09 02:32:01;;;;;;;1.20;1.10;;;16.70;49.20;;;;;;5171002;27;45250;-63
2023/12/09 02:34:28;;;;;;;1.27;1.17;;;16.70;49.20;;;;;;5170922;27;45392;-63
2023/12/09 02:36:54;;;;;;;2.15;1.40;;;16.70;49.20;;;;;;5170291;27;45310;-63
2023/12/09 02:39:22;;;;;;;1.98;1.10;;;16.60;49.20;;;;;;5170489;27;45271;-63
2023/12/09 02:41:50;;;;;;;1.55;1.25;;;16.60;49.20;;;;;;5170747;27;45183;-64
2023/12/09 02:44:17;;;;;;;2.20;1.20;;;16.60;49.30;;;;;;5170975;27;45274;-64
2023/12/09 02:46:43;;;;;;;1.48;1.05;;;16.60;49.30;;;;;;5170577;27;46338;-63
2023/12/09 02:49:10;;;;;;;1.77;1.20;;;16.60;49.40;;;;;;5170356;27;45335;-64
2023/12/09 02:51:37;;;;;;;1.95;1.45;;;16.60;49.30;;;;;;5170745;27;45332;-63
2023/12/09 02:54:04;;;;;;;3.40;1.25;;;16.50;49.40;;;;;;5170701;27;45432;-64
2023/12/09 02:56:31;;;;;;;1.20;1.05;;;16.50;49.40;;;;;;5170314;27;47378;-64
2023/12/09 02:58:59;;;;;;;1.55;1.30;;;16.50;50.10;;;;;;5170226;27;45325;-63
2023/12/09 03:01:26;;;;;;;1.08;1.08;;;16.50;49.50;;;;;;5167649;27;45311;-64
2023/12/09 03:03:53;;;;;;;1.20;1.10;;;16.50;49.40;;;;;;5170658;27;45130;-63
2023/12/09 03:06:19;;;;;;;2.42;1.27;;;16.50;49.40;;;;;;5170003;27;45465;-63
2023/12/09 03:08:46;;;;;;;1.20;1.10;;;16.40;49.40;;;;;;5170100;27;45310;-64
2023/12/09 03:11:13;;;;;;;1.45;1.25;;;16.40;49.40;;;;;;5170410;27;45359;-64
2023/12/09 03:13:40;;;;;;;1.40;1.25;;;16.40;49.40;;;;;;5170389;27;45423;-63
2023/12/09 03:16:09;;;;;;;1.75;1.00;;;16.40;49.50;;;;;;5169810;27;47310;-63
2023/12/09 03:18:36;;;;;;;1.48;0.98;;;16.40;49.50;;;;;;5169975;27;45312;-63
2023/12/09 03:21:03;;;;;;;2.28;1.38;;;16.40;49.50;;;;;;5170074;27;45394;-63
2023/12/09 03:23:30;;;;;;;1.38;1.23;;;16.40;49.50;;;;;;5170228;27;45649;-64
2023/12/09 03:25:56;;;;;;;1.60;1.05;;;16.40;49.50;;;;;;5169704;27;46389;-63
2023/12/09 03:28:23;;;;;;;1.60;1.20;;;16.40;49.40;;;;;;5169789;27;45207;-63
2023/12/09 03:30:50;;;;;;;1.30;1.20;;;16.30;49.40;;;;;;5169964;27;45277;-64
2023/12/09 03:33:18;;;;;;;1.15;1.05;;;16.30;49.50;;;;;;5169997;27;45280;-64
2023/12/09 03:35:45;;;;;;;0.80;0.80;;;16.30;49.50;;;;;;5169790;27;46171;-64
2023/12/09 03:38:12;;;;;;;1.25;1.10;;;16.30;49.40;;;;;;5169604;27;45289;-64
2023/12/09 03:40:39;;;;;;;2.67;1.30;;;16.30;49.40;;;;;;5169813;27;45341;-64
2023/12/09 03:43:05;;;;;;;1.98;1.08;;;16.30;49.50;;;;;;5170011;27;45362;-64
2023/12/09 03:45:32;;;;;;;2.67;1.50;;;16.30;49.40;;;;;;5169571;27;47293;-64
2023/12/09 03:47:59;;;;;;;2.25;0.90;;;16.30;49.30;;;;;;5169495;27;45371;-64
2023/12/09 03:50:27;;;;;;;1.40;1.10;;;16.30;49.30;;;;;;5169646;27;45527;-64
2023/12/09 03:52:54;;;;;;;1.30;1.20;;;16.30;49.40;;;;;;5169923;27;45399;-64
2023/12/09 03:55:21;;;;;;;1.63;1.30;;;16.30;49.40;;;;;;5169601;27;45181;-63
2023/12/09 03:57:48;;;;;;;1.88;1.00;;;16.30;49.40;;;;;;5169361;27;45447;-64
2023/12/09 04:00:16;;;;;;;1.08;0.82;;;16.30;49.40;;;;;;5169203;27;45331;-63
2023/12/09 04:02:43;;;;;;;1.48;1.15;;;16.30;49.30;;;;;;5169614;27;45398;-63
2023/12/09 04:05:10;;;;;;;1.23;1.00;;;16.30;49.40;;;;;;5169164;27;46638;-63
2023/12/09 04:07:39;;;;;;;1.83;1.05;;;16.30;49.30;;;;;;5169182;27;45231;-63
2023/12/09 04:10:06;;;;;;;1.20;1.10;;;16.30;49.40;;;;;;5169517;27;45334;-63
2023/12/09 04:12:35;;;;;;;1.35;1.08;;;16.40;49.30;;;;;;5169487;27;45322;-63
2023/12/09 04:15:03;;;;;;;2.60;1.10;;;16.40;49.20;;;;;;5168922;27;47309;-64
2023/12/09 04:17:30;;;;;;;1.23;1.13;;;16.50;49.00;;;;;;5169113;27;45430;-64
2023/12/09 04:19:56;;;;;;;1.00;1.00;;;16.60;48.70;;;;;;5169072;27;45374;-64
2023/12/09 04:22:23;;;;;;;1.65;1.10;;;16.70;48.50;;;;;;5169386;27;45413;-64
2023/12/09 04:24:51;;;;;;;0.93;0.80;;;16.80;48.30;;;;;;5168885;27;45310;-63
2023/12/09 04:27:18;;;;;;;1.27;1.00;;;16.90;48.00;;;;;;5169013;27;45336;-63
2023/12/09 04:29:45;;;;;;;1.58;0.90;;;17.10;47.80;;;;;;5169065;27;45363;-63
2023/12/09 04:32:12;;;;;;;2.63;0.98;;;17.20;47.50;;;;;;5169010;27;45482;-63
2023/12/09 04:34:39;;;;;;;1.13;1.05;;;17.30;47.30;;;;;;5168244;27;46379;-63
2023/12/09 04:37:06;;;;;;;1.73;0.90;;;17.40;47.10;;;;;;5168505;27;45310;-64
2023/12/09 04:39:33;;;;;;;1.70;1.20;;;17.50;46.90;;;;;;5168843;27;45316;-63
2023/12/09 04:42:01;;;;;;;1.13;1.05;;;17.60;46.80;;;;;;5168793;27;45294;-63
2023/12/09 04:44:28;;;;;;;0.88;0.88;;;17.70;46.50;;;;;;5168565;27;46528;-63
2023/12/09 04:46:55;;;;;;;1.38;0.98;;;17.80;46.40;;;;;;5168626;27;45185;-63
2023/12/09 04:49:21;;;;;;;1.10;0.95;;;17.90;46.20;;;;;;5168493;27;45334;-63
2023/12/09 04:51:48;;;;;;;1.95;1.00;;;17.90;46.00;;;;;;5169023;27;45379;-63
2023/12/09 04:54:15;;;;;;;0.85;0.80;;;18.00;45.90;;;;;;5168326;27;46553;-63
2023/12/09 04:56:43;;;;;;;0.93;0.90;;;18.10;45.80;;;;;;5168411;27;45345;-63
2023/12/09 04:59:11;;;;;;;1.42;1.08;;;18.20;45.60;;;;;;5168601;27;45247;-63
2023/12/09 05:01:38;;;;;;;1.90;1.00;;;18.20;45.50;;;;;;5168896;27;45416;-63
2023/12/09 05:04:05;;;;;;;0.93;0.80;;;18.30;45.40;;;;;;5168484;27;46641;-64
2023/12/09 05:06:32;;;;;;;1.27;0.90;;;18.40;45.30;;;;;;5168579;27;45332;-63
2023/12/09 05:08:58;;;;;;;0.98;0.77;;;18.40;45.20;;;;;;5168680;27;45260;-63
2023/12/09 05:11:25;;;;;;;1.45;1.02;;;18.50;45.20;;;;;;5168863;27;45253;-64
2023/12/09 05:13:52;;;;;;;1.00;0.90;;;18.50;45.00;;;;;;5168432;27;45270;-63
2023/12/09 05:16:20;;;;;;;1.25;0.82;;;18.60;45.00;;;;;;5168681;27;45383;-64
2023/12/09 05:18:47;;;;;;;0.95;0.80;;;18.60;44.90;;;;;;5168191;27;45387;-64
2023/12/09 05:21:14;;;;;;;0.93;0.93;;;18.70;44.90;;;;;;5168228;27;45452;-63
2023/12/09 05:23:41;;;;;;;0.73;0.73;;;18.70;44.80;;;;;;5168029;27;46638;-64
2023/12/09 05:26:09;;;;;;;1.15;1.05;;;18.70;44.70;;;;;;5167974;27;45373;-64
2023/12/09 05:28:36;;;;;;;1.52;0.90;;;18.80;44.70;;;;;;5168140;27;45489;-63
2023/12/09 05:31:03;;;;;;;1.05;0.73;;;18.80;44.60;;;;;;5168305;27;45246;-63
2023/12/09 05:33:32;;;;;;;1.55;0.80;;;18.80;44.50;;;;;;5168120;27;45319;-63
2023/12/09 05:35:58;;;;;;;0.90;0.65;;;18.90;44.50;;;;;;5167969;27;45316;-64
2023/12/09 05:38:25;;;;;;;1.00;0.80;;;18.90;44.50;;;;;;5168211;27;45424;-64
2023/12/09 05:40:52;;;;;;;1.15;0.88;;;19.00;44.40;;;;;;5168181;27;45270;-63
2023/12/09 05:43:19;;;;;;;1.17;0.80;;;19.00;44.40;;;;;;5165335;27;46301;-64
2023/12/09 05:45:46;;;;;;;1.55;0.82;;;19.00;44.40;;;;;;5168109;27;45175;-64
2023/12/09 05:48:12;;;;;;;1.02;0.60;;;19.00;44.30;;;;;;5171389;27;45271;-64
2023/12/09 05:50:41;;;;;;;1.27;0.80;;;19.10;44.30;;;;;;5171961;27;45411;-62
2023/12/09 05:53:08;;;;;;;0.88;0.68;;;19.10;44.20;;;;;;5171450;27;45790;-63
2023/12/09 05:55:35;;;;;;;0.80;0.60;;;19.10;44.10;;;;;;5171628;27;45314;-63
2023/12/09 05:58:02;;;;;;;1.50;0.90;;;19.10;44.10;;;;;;5171722;27;45289;-63
2023/12/09 06:00:29;;;;;;;1.13;0.90;;;19.20;44.10;;;;;;5171882;27;45443;-63
2023/12/09 06:02:56;;;;;;;2.28;0.88;;;19.20;44.10;;;;;;5171161;27;45425;-63
2023/12/09 06:05:23;;;;;;;1.20;0.80;;;19.20;44.00;;;;;;5171320;27;45275;-65
2023/12/09 06:07:51;;;;;;;0.88;0.65;;;19.20;44.00;;;;;;5171128;27;45193;-63
2023/12/09 06:10:18;;;;;;;1.40;0.70;;;19.20;43.90;;;;;;5171305;27;45412;-63
2023/12/09 06:12:45;;;;;;;0.70;0.70;;;19.30;44.00;;;;;;5171071;27;45366;-63
2023/12/09 06:15:11;;;;;;;0.80;0.80;;;19.30;43.90;;;;;;5171176;27;45298;-63
2023/12/09 06:17:38;;;;;;;0.73;0.60;;;19.30;43.90;;;;;;5171188;27;45317;-66
2023/12/09 06:20:08;;;;;;;0.88;0.77;;;19.30;43.90;;;;;;5171189;27;45307;-65
2023/12/09 06:22:35;;;;;;;0.68;0.60;;;19.30;43.90;;;;;;5170876;27;47323;-63
2023/12/09 06:25:03;;;;;;;1.33;0.80;;;19.30;43.90;;;;;;5171052;27;45366;-63
2023/12/09 06:27:30;;;;;;;0.65;0.65;;;19.30;43.80;;;;;;5170988;27;45235;-63
2023/12/09 06:29:57;;;;;;;0.80;0.80;;;19.40;43.80;;;;;;5171353;27;45452;-63
2023/12/09 06:32:23;;;;;;;0.98;0.60;;;19.40;43.80;;;;;;5170980;27;45311;-63
2023/12/09 06:34:50;;;;;;;0.93;0.70;;;19.40;43.70;;;;;;5170848;27;45350;-63
2023/12/09 06:37:17;;;;;;;0.80;0.70;;;19.40;43.80;;;;;;5170942;27;45383;-63
2023/12/09 06:39:44;;;;;;;0.70;0.70;;;19.40;43.70;;;;;;5171122;27;45350;-63
2023/12/09 06:42:12;;;;;;;0.60;0.60;;;19.40;43.70;;;;;;5170588;27;46310;-63
2023/12/09 06:44:38;;;;;;;0.65;0.65;;;19.50;43.70;;;;;;5170546;27;45391;-62
2023/12/09 06:47:05;;;;;;;0.73;0.57;;;19.50;43.60;;;;;;5171140;27;45620;-63
2023/12/09 06:49:32;;;;;;;0.50;0.50;;;19.40;43.60;;;;;;5171111;27;45373;-63
2023/12/09 06:51:59;;;;;;;1.00;0.70;;;19.50;43.60;;;;;;5170717;27;47299;-63
2023/12/09 06:54:26;;;;;;;0.80;0.80;;;19.50;43.60;;;;;;5170870;27;45283;-63
2023/12/09 06:56:53;;;;;;;0.70;0.60;;;19.50;43.50;;;;;;5170660;27;45323;-63
2023/12/09 06:59:21;;;;;;;0.70;0.70;;;19.50;43.50;;;;;;5170744;27;45424;-64
2023/12/09 07:01:49;;;;;;;0.47;0.47;;;19.50;43.50;;;;;;5170350;27;45322;-63
2023/12/09 07:04:16;;;;;;;0.70;0.68;;;19.60;43.50;;;;;;5170665;27;45247;-63
2023/12/09 07:06:43;;;;;;;0.63;0.55;;;19.60;43.50;;;;;;5170620;27;45255;-63
2023/12/09 07:09:10;;;;;;;0.55;0.50;;;19.60;43.50;;;;;;5170746;27;45351;-62
2023/12/09 07:11:36;;;;;;;0.50;0.50;;;19.60;43.50;;;;;;5170357;27;46378;-63
2023/12/09 07:14:03;;;;;;;0.85;0.68;;;19.60;43.40;;;;;;5170603;27;45298;-63
2023/12/09 07:16:32;;;;;;;1.13;0.70;;;19.60;43.40;;;;;;5170426;27;45289;-64
2023/12/09 07:18:59;;;;;;;0.60;0.57;;;19.60;43.40;;;;;;5170572;27;45906;-64
2023/12/09 07:21:27;;;;;;;0.55;0.55;;;19.60;43.30;;;;;;5170301;27;46578;-63
2023/12/09 07:23:53;;;;;;;0.75;0.60;;;19.60;43.20;;;;;;5170260;27;45439;-64
2023/12/09 07:26:20;;;;;;;0.45;0.45;;;19.60;43.20;;;;;;5169993;27;45184;-63
2023/12/09 07:28:47;;;;;;;0.60;0.60;;;19.70;43.30;;;;;;5170325;27;45243;-63
2023/12/09 07:31:14;;;;;;;0.60;0.60;;;19.70;43.20;;;;;;5169760;27;46584;-64
2023/12/09 07:33:43;;;;;;;0.60;0.60;;;19.70;43.20;;;;;;5169838;27;45361;-63
2023/12/09 07:36:10;;;;;;;0.60;0.60;;;19.70;43.20;;;;;;5169553;27;45332;-63
2023/12/09 07:38:37;;;;;;;0.55;0.50;;;19.70;43.20;;;;;;5170073;27;45293;-63
2023/12/09 07:41:04;;;;;;;0.77;0.77;;;19.70;43.10;;;;;;5169727;27;45378;-64
2023/12/09 07:43:32;;;;;;;2.28;0.57;;;19.70;43.10;;;;;;5169652;27;45321;-63
2023/12/09 07:45:58;;;;;;;1.08;0.82;;;19.70;43.10;;;;;;5169973;27;45318;-64
2023/12/09 07:48:25;;;;;;;1.10;0.80;;;19.70;43.10;;;;;;5169933;27;45277;-64
2023/12/09 07:50:53;;;;;;;0.52;0.52;;;19.80;43.10;;;;;;5169605;27;46527;-64
2023/12/09 07:53:20;;;;;;;1.77;0.75;;;19.80;43.10;;;;;;5169757;27;45324;-63
2023/12/09 07:55:47;;;;;;;0.55;0.43;;;19.80;43.10;;;;;;5170026;27;45365;-63
2023/12/09 07:58:13;;;;;;;0.70;0.70;;;19.80;43.00;;;;;;5170075;27;45344;-64
2023/12/09 08:00:40;;;;;;;0.68;0.55;;;19.80;43.00;;;;;;5169580;27;46431;-63
2023/12/09 08:03:07;;;;;;;0.73;0.60;;;19.80;43.00;;;;;;5169695;27;45302;-63
2023/12/09 08:05:34;;;;;;;0.55;0.55;;;19.80;43.00;;;;;;5169851;27;45452;-63
2023/12/09 08:08:03;;;;;;;0.50;0.50;;;19.80;43.00;;;;;;5169442;27;45379;-63
2023/12/09 08:10:29;;;;;;;1.90;0.70;;;19.80;43.00;;;;;;5168117;27;45324;-63
2023/12/09 08:12:56;;;;;;;0.73;0.70;;;19.90;43.00;;;;;;5166820;27;45329;-63
2023/12/09 08:15:23;;;;;;;0.80;0.57;;;19.90;43.00;;;;;;5169471;27;45221;-64
2023/12/09 08:17:50;;;;;;;0.65;0.65;;;19.90;43.00;;;;;;5169520;27;45384;-63
2023/12/09 08:20:17;;;;;;;0.77;0.60;;;19.90;42.90;;;;;;5169191;27;47340;-65
2023/12/09 08:22:44;;;;;;;1.70;0.60;;;19.90;42.90;;;;;;5168818;27;45224;-64
2023/12/09 08:25:12;;;;;;;1.15;0.60;;;19.90;42.90;;;;;;5169035;27;45500;-64
2023/12/09 08:27:45;;;;;;;0.85;0.70;;;19.90;42.90;;;;;;5169184;27;45298;-64
2023/12/09 08:30:13;;;;;;;0.70;0.70;;;19.90;42.90;;;;;;5168946;27;46338;-64
2023/12/09 08:32:41;;;;;;;0.80;0.40;;;19.90;42.90;;;;;;5169235;27;45278;-64
2023/12/09 08:35:09;;;;;;;0.98;0.70;;;20.00;42.90;;;;;;5168968;27;45378;-64
2023/12/09 08:37:35;;;;;;;0.82;0.63;;;20.00;42.90;;;;;;5169227;27;45339;-64
2023/12/09 08:40:09;;;;;;;0.50;0.50;;;20.00;42.90;;;;;;5168951;27;46323;-64
2023/12/09 08:42:38;;;;;;;1.17;0.60;;;20.00;42.90;;;;;;5168658;27;45333;-64
2023/12/09 08:45:07;;;;;;;0.75;0.50;;;20.00;42.90;;;;;;5169067;27;45350;-63
2023/12/09 08:47:34;;;;;;;1.83;0.60;;;20.00;42.80;;;;;;5169312;27;45395;-64
2023/12/09 08:50:01;;;;;;;1.95;0.73;;;20.00;42.80;;;;;;5169000;27;45258;-64
2023/12/09 08:52:27;;;;;;;3.17;0.63;;;20.00;42.80;;;;;;5169305;27;45271;-64
2023/12/09 08:54:54;;;;;;;0.65;0.50;;;20.00;42.90;;;;;;5169294;27;45293;-64
2023/12/09 08:57:24;;;;;;;0.63;0.63;;;20.00;42.90;;;;;;5168584;27;45378;-65
2023/12/09 08:59:52;;;;;;;1.33;0.90;;;20.10;42.90;;;;;;5168937;27;45550;-65
2023/12/09 09:02:19;;;;;;;0.65;0.65;;;20.10;43.40;;;;;;5168971;27;45320;-65
2023/12/09 09:04:46;;;;;;;0.50;0.50;;;20.10;42.90;;;;;;5168462;27;45275;-64
2023/12/09 09:07:13;;;;;;;0.60;0.60;;;20.10;42.90;;;;;;5169256;27;45329;-64
2023/12/09 09:09:39;;;;;;;1.45;0.60;;;20.10;42.90;;;;;;5168845;27;47543;-64
2023/12/09 09:12:07;;;;;;;3.60;0.88;;;20.10;42.90;;;;;;5168954;27;45347;-64
2023/12/09 09:14:34;;;;;;;3.35;0.98;;;20.10;43.00;;;;;;5169105;27;45258;-64
2023/12/09 09:17:02;;;;;;;4.78;0.90;;;20.10;43.00;;;;;;5168602;27;45338;-64
2023/12/09 09:19:29;;;;;;;0.60;0.60;;;20.10;43.00;;;;;;5168347;27;46246;-65
2023/12/09 09:21:56;;;;;;;0.57;0.57;;;20.10;43.00;;;;;;5171354;27;45330;-64
2023/12/09 09:24:22;;;;;;;1.20;0.98;;;20.10;43.00;;;;;;5172451;27;45295;-65
2023/12/09 09:26:49;;;;;;;2.85;0.73;;;20.10;43.00;;;;;;5172396;27;45342;-65
2023/12/09 09:29:16;;;;;;;1.30;0.70;;;20.20;43.00;;;;;;5171919;27;46676;-64
2023/12/09 09:31:43;;;;;;;0.60;0.60;;;20.20;43.00;;;;;;5158694;27;45367;-65
2023/12/09 09:34:12;;;;;;;3.08;0.80;;;20.20;42.90;;;;;;5150993;27;45246;-64
2023/12/09 09:36:39;;;;;;;1.02;0.93;;;20.10;42.60;;;;;;5150999;27;45294;-65
2023/12/09 09:39:06;;;;;;;0.73;0.70;;;20.10;42.70;;;;;;5151444;27;46397;-64
2023/12/09 09:41:36;;;;;;;2.15;1.00;;;20.10;42.70;;;;;;5151582;27;45402;-64
2023/12/09 09:44:07;;;;;;;2.10;0.82;;;20.20;42.80;;;;;;5150991;27;45380;-64
2023/12/09 09:46:34;;;;;;;0.88;0.88;;;20.10;42.80;;;;;;5150793;27;45459;-64
2023/12/09 09:49:02;;;;;;;0.90;0.90;;;20.10;42.80;;;;;;5150459;27;46732;-65
2023/12/09 09:51:31;;;;;;;5.65;1.00;;;20.10;42.80;;;;;;5159417;27;45325;-64
2023/12/09 09:54:06;;;;;;;1.77;1.35;;;20.10;42.80;;;;;;5171578;27;45408;-65
2023/12/09 09:56:33;;;;;;;3.33;1.20;;;20.20;42.90;;;;;;5171846;27;45347;-65
2023/12/09 09:59:00;;;;;;;2.85;1.20;;;20.20;42.90;;;;;;5170932;27;45275;-64
2023/12/09 10:01:27;;;;;;;1.58;0.98;;;20.20;42.90;;;;;;5166243;27;45346;-64
2023/12/09 10:03:54;;;;;;;2.08;1.30;;;20.20;43.00;;;;;;5171283;27;45298;-65
2023/12/09 10:06:21;;;;;;;2.90;1.40;;;20.20;43.00;;;;;;5171515;27;45306;-64
2023/12/09 10:08:49;;;;;;;4.15;1.55;;;20.20;42.90;;;;;;5171172;27;45443;-64
2023/12/09 10:11:16;;;;;;;3.08;1.40;;;20.20;42.90;;;;;;5171167;27;45333;-64
2023/12/09 10:13:45;;;;;;;2.55;1.30;;;20.20;42.90;;;;;;5171402;27;45305;-64
2023/12/09 10:16:12;;;;;;;5.03;1.40;;;20.20;42.90;;;;;;5171447;27;45576;-64
2023/12/09 10:18:39;;;;;;;3.03;1.63;;;20.20;42.90;;;;;;5171041;27;45448;-64
2023/12/09 10:21:08;;;;;;;5.72;1.60;;;20.20;42.90;;;;;;5171213;27;45283;-65
2023/12/09 10:23:35;;;;;;;1.58;1.48;;;20.20;42.90;;;;;;5171265;27;45394;-64
2023/12/09 10:26:04;;;;;;;3.17;1.63;;;20.20;42.90;;;;;;5171383;27;45261;-64
2023/12/09 10:28:31;;;;;;;3.28;1.60;;;20.20;42.90;;;;;;5170722;27;47679;-65
2023/12/09 10:30:58;;;;;;;2.65;1.42;;;20.20;42.90;;;;;;5170990;27;45325;-65
2023/12/09 10:33:24;;;;;;;1.67;1.52;;;20.20;42.90;;;;;;5169111;27;45196;-65
2023/12/09 10:35:51;;;;;;;5.63;1.58;;;20.20;42.90;;;;;;5170243;27;45372;-65
2023/12/09 10:38:18;;;;;;;2.67;1.50;;;20.20;43.10;;;;;;5153729;27;46376;-64
2023/12/09 10:40:45;;;;;;;1.98;1.30;;;20.20;43.00;;;;;;5150171;27;45302;-64
2023/12/09 10:43:14;;;;;;;3.95;1.63;;;20.20;43.00;;;;;;5150050;27;45676;-65
2023/12/09 10:45:40;;;;;;;3.08;1.50;;;20.30;43.00;;;;;;5150487;27;45246;-64
2023/12/09 10:48:07;;;;;;;1.65;1.50;;;20.30;43.00;;;;;;5149642;27;45423;-65
2023/12/09 10:50:34;;;;;;;2.08;1.60;;;20.30;43.00;;;;;;5150282;27;45339;-64
2023/12/09 10:53:00;;;;;;;1.40;1.27;;;20.30;42.90;;;;;;5150340;27;45263;-65
2023/12/09 10:55:27;;;;;;;2.80;1.52;;;20.30;42.80;;;;;;5150461;27;45280;-66
2023/12/09 10:57:54;;;;;;;1.42;1.30;;;20.40;43.40;;;;;;5149718;27;45448;-65
2023/12/09 11:00:22;;;;;;;2.03;1.40;;;20.40;42.80;;;;;;5149832;27;45285;-64
2023/12/09 11:02:49;;;;;;;2.40;1.48;;;20.40;42.70;;;;;;5149891;27;45410;-64
2023/12/09 11:05:16;;;;;;;1.63;1.50;;;20.40;42.70;;;;;;5149945;27;45404;-64
2023/12/09 11:07:44;;;;;;;3.22;1.45;;;20.40;42.60;;;;;;5149660;27;46347;-65
2023/12/09 11:10:11;;;;;;;2.30;1.33;;;20.50;42.60;;;;;;5149688;27;45421;-64
2023/12/09 11:12:38;;;;;;;1.35;1.25;;;20.50;42.60;;;;;;5149250;27;45455;-64
2023/12/09 11:15:17;;;;;;;1.77;1.40;;;20.60;42.40;;;;;;5149875;27;45412;-64
2023/12/09 11:17:47;;;;;;;1.63;1.30;;;20.70;42.20;;;;;;5148965;27;46592;-64
2023/12/09 11:20:15;;;;;;;1.20;1.10;;;20.80;42.70;;;;;;5149204;27;45322;-64
2023/12/09 11:22:43;;;;;;;1.35;1.30;;;20.80;42.00;;;;;;5149005;27;45285;-64
2023/12/09 11:25:10;;;;;;;3.70;1.25;;;20.80;41.90;;;;;;5149299;27;45536;-64
2023/12/09 11:27:37;;;;;;;1.55;1.42;;;20.80;42.00;;;;;;5149116;27;46407;-65
2023/12/09 11:30:06;;;;;;;1.75;1.05;;;20.80;41.90;;;;;;5149110;27;45413;-64
2023/12/09 11:32:32;;;;;;;1.85;1.30;;;20.80;42.00;;;;;;5149305;27;45319;-66
2023/12/09 11:35:00;;;;;;;1.63;1.30;;;20.80;42.00;;;;;;5148974;27;45405;-64
2023/12/09 11:37:28;;;;;;;1.20;1.10;;;20.80;41.80;;;;;;5151012;27;45377;-63
2023/12/09 11:39:55;;;;;;;1.27;1.17;;;20.90;41.80;;;;;;5148497;27;45379;-64
2023/12/09 11:42:23;;;;;;;2.70;1.30;;;20.90;41.80;;;;;;5148793;27;45298;-64
2023/12/09 11:44:50;;;;;;;2.33;1.40;;;21.00;41.80;;;;;;5148737;27;45455;-66
2023/12/09 11:47:18;;;;;;;2.95;1.00;;;21.00;41.60;;;;;;5157935;27;45522;-64
2023/12/09 11:49:45;;;;;;;1.20;1.10;;;21.10;41.80;;;;;;5153023;27;45442;-64
2023/12/09 11:52:13;;;;;;;3.25;1.08;;;21.10;41.80;;;;;;5154932;27;45383;-63
2023/12/09 11:54:40;;;;;;;2.88;1.10;;;21.10;41.80;;;;;;5158432;27;45497;-63
2023/12/09 11:57:10;;;;;;;2.03;1.13;;;21.00;41.80;;;;;;5157274;27;46576;-63
2023/12/09 11:59:37;;;;;;;2.08;1.08;;;21.00;41.90;;;;;;5156828;27;45391;-63
2023/12/09 12:02:04;;;;;;;1.00;1.00;;;21.00;42.00;;;;;;5156113;27;45274;-63
2023/12/09 12:04:33;;;;;;;1.83;1.35;;;21.00;42.30;;;;;;5159894;27;45461;-64
2023/12/09 12:07:00;;;;;;;2.17;1.10;;;20.90;42.20;;;;;;5154590;27;47580;-63
2023/12/09 12:09:28;;;;;;;2.35;1.10;;;20.90;42.30;;;;;;5156208;27;45437;-64
2023/12/09 12:11:58;;;;;;;1.48;1.17;;;20.90;42.40;;;;;;5158579;27;45397;-64
2023/12/09 12:14:25;;;;;;;3.85;1.17;;;20.90;42.40;;;;;;5155725;27;45302;-64
2023/12/09 12:16:51;;;;;;;1.65;1.00;;;20.90;42.40;;;;;;5151732;27;46400;-64
2023/12/09 12:19:18;;;;;;;2.55;1.05;;;20.90;42.50;;;;;;5156914;27;45313;-64
2023/12/09 12:21:52;;;;;;;2.25;1.20;;;20.80;42.60;;;;;;5155846;27;45369;-64
2023/12/09 12:24:18;;;;;;;1.55;1.20;;;20.80;42.60;;;;;;5159410;27;45586;-64
2023/12/09 12:26:47;;;;;;;1.13;0.88;;;20.80;42.60;;;;;;5156910;27;45479;-64
2023/12/09 12:29:18;;;;;;;2.55;1.25;;;20.80;42.70;;;;;;5157413;27;45316;-64
2023/12/09 12:31:45;;;;;;;1.30;1.20;;;20.80;42.60;;;;;;5156967;27;45446;-65
2023/12/09 12:34:16;;;;;;;4.82;1.60;;;20.80;42.60;;;;;;5157006;27;45484;-65
2023/12/09 12:36:43;;;;;;;4.43;1.58;;;20.80;42.60;;;;;;5156771;27;45379;-65
2023/12/09 12:39:11;;;;;;;2.97;1.55;;;20.80;42.60;;;;;;5152360;27;45493;-65
2023/12/09 12:41:38;;;;;;;3.00;1.73;;;20.80;42.90;;;;;;5155587;27;45449;-65
2023/12/09 12:44:07;;;;;;;4.70;1.83;;;20.80;42.90;;;;;;5151074;27;45482;-64
2023/12/09 12:46:34;;;;;;;6.90;2.08;;;20.80;43.00;;;;;;5154298;27;47313;-66
2023/12/09 12:49:00;;;;;;;4.88;2.50;;;20.80;43.20;;;;;;5155113;27;45406;-65